Time;durP1;ratioP1;P1;durP2;ratioP2;P2;SDS_P1;SDS_P2;PMS_P1;PMS_P2;Temp;Humidity;BMP_temperature;BMP_pressure;BME280_temperature;BME280_humidity;BME280_pressure;Samples;Min_cycle;Max_cycle;Signal;HPM_P1;HPM_P2
2023/03/08 05:47:30;;;;;;;8.90;6.25;;;;;;;6.72;50.76;97846.38;6111369;23;20202;-78
2023/03/08 05:49:55;;;;;;;11.02;7.43;;;;;;;6.75;50.30;97838.34;6080600;23;20218;-75
2023/03/08 05:52:21;;;;;;;9.80;6.83;;;;;;;6.78;50.26;97840.72;6140066;23;20237;-76
2023/03/08 05:54:47;;;;;;;9.17;5.27;;;;;;;6.81;50.27;97827.44;6147945;23;20421;-75
2023/03/08 05:57:17;;;;;;;10.43;7.97;;;;;;;6.83;50.40;97828.16;6175668;23;20928;-75
2023/03/08 06:02:31;;;;;;;10.45;6.95;;;;;;;6.86;50.03;97840.94;6099160;23;20214;-89
2023/03/08 06:05:07;;;;;;;11.82;7.88;;;;;;;6.93;50.05;97819.59;6099962;23;20442;-89
2023/03/08 06:07:43;;;;;;;;;;;;;;;;;;;;;
2023/03/08 06:10:13;;;;;;;16.52;8.60;;;;;;;6.97;50.00;97813.19;6104277;23;20208;-89
2023/03/08 06:12:39;;;;;;;14.25;9.70;;;;;;;6.95;50.16;97805.47;6105645;23;20183;-89
2023/03/08 06:15:07;;;;;;;12.65;8.50;;;;;;;6.97;50.18;97797.53;6105414;23;20238;-89
2023/03/08 06:17:35;;;;;;;13.20;7.40;;;;;;;6.97;49.79;97785.31;6100423;23;20267;-90
2023/03/08 06:20:00;;;;;;;11.93;7.63;;;;;;;6.98;50.01;97780.91;6078719;23;20188;-89
2023/03/08 06:22:26;;;;;;;11.90;7.03;;;;;;;6.99;49.72;97766.91;6049698;23;20913;-89
2023/03/08 06:24:53;;;;;;;11.07;6.35;;;;;;;7.00;50.03;97779.03;6049303;23;20444;-89
2023/03/08 06:27:29;;;;;;;9.75;7.82;;;;;;;7.02;50.21;97777.97;6053726;23;20172;-90
2023/03/08 06:29:57;;;;;;;11.77;7.50;;;;;;;7.04;50.13;97775.22;6104513;23;20267;-89
2023/03/08 06:32:28;;;;;;;8.20;6.70;;;;;;;7.07;50.43;97783.66;6079679;23;20542;-89
2023/03/08 06:34:53;;;;;;;12.90;9.15;;;;;;;7.11;50.51;97791.25;6052975;23;20458;-89
2023/03/08 06:37:23;;;;;;;10.10;6.97;;;;;;;7.10;50.67;97782.56;6080715;23;20261;-89
2023/03/08 06:40:10;;;;;;;11.02;6.55;;;;;;;7.12;50.60;97785.88;6080221;23;20489;-89
2023/03/08 06:42:46;;;;;;;9.70;6.70;;;;;;;7.11;50.40;97779.00;6052209;23;20191;-89
2023/03/08 06:45:22;;;;;;;9.93;6.53;;;;;;;7.14;50.52;97776.16;6052125;23;20213;-89
2023/03/08 06:47:58;;;;;;;8.65;6.85;;;;;;;7.14;50.48;97770.94;6052444;23;20555;-89
2023/03/08 06:50:31;;;;;;;8.55;6.53;;;;;;;7.16;50.31;97769.03;6077703;23;20204;-90
2023/03/08 06:52:59;;;;;;;11.00;7.13;;;;;;;7.16;50.58;97761.19;6054871;23;20188;-90
2023/03/08 06:55:40;;;;;;;15.15;8.15;;;;;;;7.15;50.83;97751.69;6077878;23;20598;-89
2023/03/08 06:58:07;;;;;;;11.82;6.85;;;;;;;7.17;51.00;97749.78;6091228;23;20564;-89
2023/03/08 07:00:43;;;;;;;;;;;;;;;;;;;;;
2023/03/08 07:03:12;;;;;;;10.65;7.53;;;;;;;7.16;51.47;97732.47;6081668;23;20211;-89
2023/03/08 07:05:48;;;;;;;;;;;;;;;;;;;;;
2023/03/08 07:08:16;;;;;;;12.18;8.60;;;;;;;7.17;51.47;97713.25;6078288;23;20207;-90
2023/03/08 07:11:00;;;;;;;9.82;8.27;;;;;;;7.20;51.92;97704.34;6081795;23;20203;-89
2023/03/08 07:13:28;;;;;;;12.40;7.65;;;;;;;7.19;51.84;97707.91;6081196;23;20160;-89
2023/03/08 07:16:04;;;;;;;14.30;8.52;;;;;;;7.19;51.91;97711.34;6078447;23;20200;-89
2023/03/08 07:18:49;;;;;;;10.45;7.15;;;;;;;7.20;52.56;97686.88;6080030;23;20161;-90
2023/03/08 07:21:17;;;;;;;10.73;7.68;;;;;;;7.19;52.77;97694.84;6078590;23;20646;-89
2023/03/08 07:23:51;;;;;;;9.60;6.57;;;;;;;7.22;52.44;97669.31;6080322;23;20561;-89
2023/03/08 07:26:22;;;;;;;13.77;8.93;;;;;;;7.22;52.37;97681.53;6079442;23;20548;-90
2023/03/08 07:28:59;;;;;;;;;;;;;;;;;;;;;
2023/03/08 07:31:41;;;;;;;;;;;;;;;;;;;;;
2023/03/08 07:34:12;;;;;;;12.60;8.20;;;;;;;7.25;53.02;97650.78;6082032;23;20180;-90
2023/03/08 07:36:40;;;;;;;17.23;7.90;;;;;;;7.27;53.22;97640.22;6079928;23;20609;-89
2023/03/08 07:39:15;;;;;;;13.50;8.60;;;;;;;7.32;53.46;97648.50;6081533;23;20169;-89
2023/03/08 07:41:41;;;;;;;16.30;8.57;;;;;;;7.37;53.88;97640.28;6089137;23;20194;-89
2023/03/08 07:44:06;;;;;;;17.30;9.00;;;;;;;7.43;53.71;97647.63;6079689;23;20267;-89
2023/03/08 07:46:34;;;;;;;19.83;11.53;;;;;;;7.49;53.48;97636.69;6063912;23;20255;-90
2023/03/08 07:49:09;;;;;;;20.83;12.05;;;;;;;7.54;53.71;97631.91;6080077;23;20204;-89
2023/03/08 07:51:39;;;;;;;19.58;11.32;;;;;;;7.58;53.91;97616.78;6092658;23;20624;-90
2023/03/08 07:54:15;;;;;;;;;;;;;;;;;;;;;
2023/03/08 07:56:48;;;;;;;22.33;13.98;;;;;;;7.58;54.41;97625.44;6065980;23;20206;-89
2023/03/08 07:59:31;;;;;;;16.83;10.20;;;;;;;7.60;54.78;97628.78;6073220;23;20177;-90
2023/03/08 08:02:16;;;;;;;11.23;8.82;;;;;;;7.61;55.26;97624.38;6072901;23;20212;-89
2023/03/08 08:04:41;;;;;;;15.98;9.90;;;;;;;7.64;55.70;97637.16;6047787;23;20673;-90
2023/03/08 08:07:18;;;;;;;11.73;7.57;;;;;;;7.71;56.37;97626.09;6024504;23;20535;-90
2023/03/08 08:09:47;;;;;;;9.80;6.43;;;;;;;7.84;56.43;97617.22;6070233;23;20283;-89
2023/03/08 08:12:26;;;;;;;5.90;5.00;;;;;;;7.98;56.29;97614.28;6069943;23;20194;-88
2023/03/08 08:14:54;;;;;;;6.40;4.18;;;;;;;8.11;56.61;97625.34;6069526;23;20183;-89
2023/03/08 08:17:22;;;;;;;7.15;4.80;;;;;;;8.25;56.45;97615.50;6072935;23;20220;-88
2023/03/08 08:19:50;;;;;;;8.95;5.57;;;;;;;8.38;56.16;97600.41;6075055;23;20791;-88
2023/03/08 08:22:26;;;;;;;4.07;2.65;;;;;;;8.54;56.11;97610.38;6079616;23;20261;-89
2023/03/08 08:24:52;;;;;;;8.75;4.63;;;;;;;8.64;55.86;97595.50;6081515;23;20207;-89
2023/03/08 08:27:25;;;;;;;4.97;4.28;;;;;;;8.76;55.69;97598.84;6075789;23;20199;-89
2023/03/08 08:29:51;;;;;;;6.00;3.72;;;;;;;8.88;55.58;97594.31;6075525;23;20516;-89
2023/03/08 08:32:32;;;;;;;5.88;3.38;;;;;;;8.98;55.59;97597.78;6075164;23;20165;-89
2023/03/08 08:35:08;;;;;;;4.93;3.45;;;;;;;9.07;55.35;97603.03;6080422;23;21239;-90
2023/03/08 08:37:38;;;;;;;5.50;2.92;;;;;;;9.15;55.35;97604.13;6075846;23;20216;-89
2023/03/08 08:40:06;;;;;;;4.30;3.17;;;;;;;9.20;55.20;97604.53;6074188;23;20255;-89
2023/03/08 08:42:32;;;;;;;5.75;3.28;;;;;;;9.25;55.09;97608.38;6076300;23;20211;-89
2023/03/08 08:45:07;;;;;;;5.93;3.10;;;;;;;9.29;55.06;97598.47;6075520;23;20625;-87
2023/03/08 08:47:33;;;;;;;4.10;3.70;;;;;;;9.31;55.04;97614.88;6072849;23;20188;-89
2023/03/08 08:50:06;;;;;;;4.28;3.03;;;;;;;9.33;54.94;97605.09;6076366;23;20675;-89
2023/03/08 08:52:55;;;;;;;3.80;3.40;;;;;;;9.35;54.93;97613.63;6077932;23;20172;-90
2023/03/08 08:55:30;;;;;;;5.45;3.97;;;;;;;9.36;54.57;97617.91;6076580;23;20199;-89
2023/03/08 08:57:56;;;;;;;3.90;3.30;;;;;;;9.37;54.59;97614.34;6083397;23;20180;-88
2023/03/08 09:00:32;;;;;;;;;;;;;;;;;;;;;
2023/03/08 09:03:11;;;;;;;8.70;6.20;;;;;;;9.44;54.62;97618.03;6077454;23;20412;-88
2023/03/08 09:05:42;;;;;;;6.82;5.07;;;;;;;9.51;54.48;97615.69;6074418;23;20455;-88
2023/03/08 09:08:11;;;;;;;6.78;4.80;;;;;;;9.55;54.48;97608.38;6077141;23;20184;-88
2023/03/08 09:10:40;;;;;;;7.95;4.65;;;;;;;9.57;54.15;97619.56;6076308;23;20192;-89
2023/03/08 09:13:14;;;;;;;5.70;3.47;;;;;;;9.62;54.14;97622.59;6076999;23;20169;-89
2023/03/08 09:15:48;;;;;;;4.18;3.78;;;;;;;9.67;54.00;97620.38;6076006;23;20215;-89
2023/03/08 09:18:16;;;;;;;6.45;3.00;;;;;;;9.75;53.61;97615.25;6076384;23;20167;-88
2023/03/08 09:20:54;;;;;;;3.10;2.75;;;;;;;9.80;53.50;97613.00;6077355;23;20168;-89
2023/03/08 09:23:27;;;;;;;2.97;2.33;;;;;;;9.83;53.48;97625.00;6076485;23;20176;-89
2023/03/08 09:30:28;;;;;;;4.78;3.03;;;;;;;9.87;53.97;97611.47;5989415;23;20212;-89
2023/03/08 09:33:20;;;;;;;5.72;2.50;;;;;;;9.93;54.24;97617.94;5989561;23;20182;-89
2023/03/08 09:36:07;;;;;;;5.70;3.60;;;;;;;10.03;54.67;97618.75;6076759;23;20822;-88
2023/03/08 09:41:57;;;;;;;5.57;3.85;;;;;;;10.16;54.67;97600.06;6074405;23;20634;-81
2023/03/08 09:44:44;;;;;;;4.88;3.05;;;;;;;10.24;54.86;97604.59;6085948;23;20176;-83
2023/03/08 09:47:15;;;;;;;5.18;2.63;;;;;;;10.28;54.97;97604.19;6114777;23;20203;-84
2023/03/08 09:49:45;;;;;;;15.15;3.35;;;;;;;10.38;55.28;97589.22;6121639;23;20505;-81
2023/03/08 09:54:51;;;;;;;4.10;3.70;;;;;;;10.54;55.48;97583.34;6138811;23;20388;-81
2023/03/08 09:57:22;;;;;;;5.28;2.00;;;;;;;10.65;55.76;97584.94;6142799;23;20277;-81
2023/03/08 09:59:52;;;;;;;5.03;2.88;;;;;;;10.75;56.31;97582.25;6162125;23;20247;-82
2023/03/08 10:02:41;;;;;;;4.20;2.40;;;;;;;10.84;57.08;97586.59;6161388;23;20265;-81
2023/03/08 10:05:23;;;;;;;5.13;3.10;;;;;;;10.94;57.08;97584.75;6185032;23;20814;-81
2023/03/08 10:08:02;;;;;;;4.75;3.50;;;;;;;11.01;56.93;97583.16;6183422;23;20460;-83
2023/03/08 10:10:45;;;;;;;3.15;2.05;;;;;;;11.15;57.31;97576.56;6178830;23;20279;-81
2023/03/08 10:13:28;;;;;;;5.10;3.20;;;;;;;11.31;57.45;97578.47;6179135;23;20202;-83
2023/03/08 10:16:10;;;;;;;4.30;1.83;;;;;;;11.45;57.86;97566.59;6181766;23;20182;-80
2023/03/08 10:19:05;;;;;;;2.67;1.92;;;;;;;11.53;58.14;97564.06;6184287;23;20181;-83
2023/03/08 10:21:35;;;;;;;3.28;2.33;;;;;;;11.70;58.22;97568.44;6183968;23;20189;-82
2023/03/08 10:24:25;;;;;;;2.13;1.92;;;;;;;11.88;58.10;97564.94;6184245;23;20279;-81
2023/03/08 10:26:52;;;;;;;2.95;2.13;;;;;;;12.03;57.90;97571.28;6184511;23;20269;-81
2023/03/08 10:29:18;;;;;;;2.60;2.38;;;;;;;12.20;57.95;97563.44;6183919;23;20273;-81
2023/03/08 10:31:45;;;;;;;2.53;2.33;;;;;;;12.34;57.84;97576.84;6185475;23;20508;-82
2023/03/08 10:34:26;;;;;;;5.10;2.85;;;;;;;12.41;57.95;97590.19;6181837;23;20777;-81
2023/03/08 10:36:58;;;;;;;2.05;1.73;;;;;;;12.41;58.34;97569.13;6183740;23;20186;-81
2023/03/08 10:39:23;;;;;;;3.60;2.75;;;;;;;12.47;58.25;97572.94;6182151;23;20178;-82
2023/03/08 10:41:54;;;;;;;2.33;2.00;;;;;;;12.50;58.34;97593.69;6182149;23;20183;-82
2023/03/08 10:44:29;;;;;;;6.00;2.88;;;;;;;12.51;58.42;97580.38;6185747;23;20219;-81
2023/03/08 10:46:55;;;;;;;2.83;2.33;;;;;;;12.57;58.45;97576.25;6186027;23;20207;-81
2023/03/08 10:49:23;;;;;;;2.80;2.13;;;;;;;12.65;58.49;97576.28;6158769;23;20736;-81
2023/03/08 10:51:57;;;;;;;3.47;2.40;;;;;;;12.75;58.31;97581.44;6185716;23;20522;-81
2023/03/08 10:54:23;;;;;;;5.28;2.88;;;;;;;12.80;58.32;97568.59;6185145;23;20210;-82
2023/03/08 10:57:00;;;;;;;3.87;2.57;;;;;;;12.77;58.54;97595.25;6184092;23;20508;-81
2023/03/08 10:59:32;;;;;;;4.85;2.70;;;;;;;12.79;58.64;97595.91;6183989;23;20409;-81
2023/03/08 11:02:13;;;;;;;6.20;3.05;;;;;;;12.76;58.84;97589.16;6157555;23;20255;-81
2023/03/08 11:04:50;;;;;;;3.13;2.75;;;;;;;12.74;59.01;97592.94;6183420;23;20606;-80
2023/03/08 11:07:25;;;;;;;3.20;2.28;;;;;;;12.75;59.20;97605.13;6186474;23;20188;-82
2023/03/08 11:09:50;;;;;;;4.30;2.20;;;;;;;12.67;59.46;97605.13;6185657;23;20193;-80
2023/03/08 11:12:24;;;;;;;4.70;2.53;;;;;;;12.61;60.06;97606.59;6184369;23;20533;-80
2023/03/08 11:14:50;;;;;;;2.50;2.13;;;;;;;12.65;59.99;97604.44;6184682;23;20188;-81
2023/03/08 11:17:38;;;;;;;4.88;2.78;;;;;;;12.71;60.19;97598.53;6183789;23;20186;-81
2023/03/08 11:20:17;;;;;;;3.30;2.33;;;;;;;12.74;60.24;97609.56;6183231;23;20186;-82
2023/03/08 11:22:51;;;;;;;4.25;2.05;;;;;;;12.79;60.41;97611.72;6185157;23;20198;-84
2023/03/08 11:25:27;;;;;;;5.05;3.47;;;;;;;12.86;60.18;97602.19;6188940;23;20181;-81
2023/03/08 11:28:02;;;;;;;4.63;3.85;;;;;;;12.95;60.20;97613.56;6184665;23;20238;-82
2023/03/08 11:30:27;;;;;;;3.30;2.88;;;;;;;13.03;60.07;97605.69;6182266;23;20885;-80
2023/03/08 11:33:24;;;;;;;3.17;2.03;;;;;;;13.12;60.00;97619.69;6183696;23;20198;-82
2023/03/08 11:36:10;;;;;;;3.72;2.50;;;;;;;13.19;60.06;97610.97;6184785;23;20440;-81
2023/03/08 11:38:36;;;;;;;3.35;2.90;;;;;;;13.25;59.85;97620.88;6185945;23;20192;-81
2023/03/08 11:41:31;;;;;;;2.92;2.63;;;;;;;13.27;59.71;97610.19;6184386;23;20528;-81
2023/03/08 11:44:14;;;;;;;4.78;2.97;;;;;;;13.29;59.79;97605.59;6184819;23;20274;-82
2023/03/08 11:46:49;;;;;;;3.30;2.95;;;;;;;13.32;59.96;97607.09;6183521;23;20178;-81
2023/03/08 11:49:38;;;;;;;4.15;2.88;;;;;;;13.38;59.85;97609.06;6185837;23;20198;-81
2023/03/08 11:52:21;;;;;;;3.92;3.17;;;;;;;13.37;59.80;97618.78;6183596;23;20170;-81
2023/03/08 11:55:22;;;;;;;2.92;2.15;;;;;;;13.36;59.77;97619.75;6183989;23;20245;-81
2023/03/08 11:57:58;;;;;;;5.53;2.00;;;;;;;13.40;59.67;97607.91;6149759;23;20171;-82
2023/03/08 12:00:36;;;;;;;2.10;1.70;;;;;;;13.41;59.52;97622.72;6182502;23;20168;-82
2023/03/08 12:03:14;;;;;;;2.10;1.90;;;;;;;13.49;59.73;97616.63;6182290;23;20384;-82
2023/03/08 12:05:48;;;;;;;2.65;1.60;;;;;;;13.56;59.54;97611.53;6179968;23;20178;-82
2023/03/08 12:08:29;;;;;;;2.33;1.33;;;;;;;13.67;59.36;97604.09;6181962;23;20620;-81
2023/03/08 12:11:00;;;;;;;3.58;1.60;;;;;;;13.80;59.06;97608.88;6180144;23;20195;-82
2023/03/08 12:13:42;;;;;;;2.17;1.95;;;;;;;13.97;58.76;97616.78;6178786;23;20182;-82
2023/03/08 12:16:16;;;;;;;1.75;1.08;;;;;;;14.13;58.28;97608.81;6179411;23;20169;-81
2023/03/08 12:18:53;;;;;;;1.40;1.00;;;;;;;14.26;57.63;97587.16;6178105;23;20158;-82
2023/03/08 12:21:42;;;;;;;1.00;0.90;;;;;;;14.41;57.51;97580.16;6178388;23;20182;-81
2023/03/08 12:24:23;;;;;;;2.55;0.80;;;;;;;14.49;57.00;97571.38;6177834;23;20249;-82
2023/03/08 12:27:03;;;;;;;1.23;0.90;;;;;;;14.47;56.62;97568.88;6180822;23;20170;-80
2023/03/08 12:29:38;;;;;;;1.60;1.00;;;;;;;14.56;56.84;97564.44;6176008;23;20190;-81
2023/03/08 12:32:04;;;;;;;4.05;1.05;;;;;;;14.64;56.61;97550.38;6180989;23;20280;-82
2023/03/08 12:34:42;;;;;;;1.55;0.90;;;;;;;14.66;56.48;97577.41;6182328;23;20503;-83
2023/03/08 12:37:27;;;;;;;1.63;1.10;;;;;;;14.65;56.64;97566.03;6184836;23;20158;-81
2023/03/08 12:40:00;;;;;;;1.15;0.70;;;;;;;14.63;56.94;97561.91;6183763;23;20472;-82
2023/03/08 12:42:32;;;;;;;15.35;1.33;;;;;;;14.66;56.84;97556.28;6187626;23;20409;-82
2023/03/08 12:45:26;;;;;;;0.90;0.80;;;;;;;14.67;57.00;97558.75;6191398;23;20237;-81
2023/03/08 12:48:04;;;;;;;0.80;0.70;;;;;;;14.68;56.72;97547.19;6178375;23;20196;-82
2023/03/08 12:50:33;;;;;;;1.00;0.90;;;;;;;14.66;56.93;97546.53;6181934;23;20259;-81
2023/03/08 12:52:58;;;;;;;2.28;1.38;;;;;;;14.68;56.70;97544.53;6182785;23;20277;-82
2023/03/08 12:55:30;;;;;;;0.90;0.90;;;;;;;14.67;56.76;97542.91;6181010;23;20215;-81
2023/03/08 12:57:58;;;;;;;1.17;0.80;;;;;;;14.70;56.91;97541.75;6184180;23;20240;-82
2023/03/08 13:00:32;;;;;;;1.10;0.80;;;;;;;14.66;56.85;97553.63;6164705;23;20200;-81
2023/03/08 13:03:05;;;;;;;1.05;0.80;;;;;;;14.56;57.00;97549.41;6184045;23;20217;-80
2023/03/08 13:05:39;;;;;;;14.63;1.95;;;;;;;14.56;57.41;97540.66;6186373;23;20159;-82
2023/03/08 13:08:13;;;;;;;9.70;1.10;;;;;;;14.47;57.76;97537.19;6184539;23;20172;-82
2023/03/08 13:10:51;;;;;;;0.80;0.80;;;;;;;14.45;58.02;97533.09;6185256;23;20192;-83
2023/03/08 13:13:35;;;;;;;1.10;0.90;;;;;;;14.48;57.93;97545.97;6183596;23;20190;-82
2023/03/08 13:16:27;;;;;;;1.23;0.90;;;;;;;14.48;57.75;97548.59;6183213;23;20162;-82
2023/03/08 13:19:20;;;;;;;1.00;0.90;;;;;;;14.49;57.86;97539.66;6181519;23;20171;-82
2023/03/08 13:22:17;;;;;;;1.30;0.90;;;;;;;14.56;57.76;97535.38;6182081;23;20523;-82
2023/03/08 13:24:57;;;;;;;1.25;0.93;;;;;;;14.65;57.28;97526.41;6178940;23;20279;-81
2023/03/08 13:27:32;;;;;;;1.42;1.10;;;;;;;14.73;56.67;97538.75;6182266;23;20192;-82
2023/03/08 13:30:15;;;;;;;6.43;1.17;;;;;;;14.80;56.68;97539.69;6184780;23;20266;-82
2023/03/08 13:32:40;;;;;;;2.38;0.90;;;;;;;14.86;56.55;97535.53;6182773;23;20182;-80
2023/03/08 13:35:14;;;;;;;1.07;0.97;;;;;;;14.97;56.31;97541.22;6181176;23;20152;-80
2023/03/08 13:37:40;;;;;;;1.00;0.80;;;;;;;15.04;55.68;97522.81;6184212;23;20202;-81
2023/03/08 13:40:18;;;;;;;1.27;0.60;;;;;;;15.14;55.46;97528.69;6185389;23;20620;-81
2023/03/08 13:43:01;;;;;;;1.33;1.00;;;;;;;15.18;55.20;97514.13;6185242;23;20253;-82
2023/03/08 13:45:27;;;;;;;1.17;0.80;;;;;;;15.19;55.01;97514.94;6184461;23;20596;-81
2023/03/08 13:47:56;;;;;;;1.63;0.80;;;;;;;15.19;55.03;97515.78;6183590;23;20163;-82
2023/03/08 13:50:30;;;;;;;0.80;0.80;;;;;;;15.18;54.55;97514.13;6184431;23;20193;-81
2023/03/08 13:52:57;;;;;;;1.52;0.90;;;;;;;15.24;55.06;97499.38;6183114;23;20188;-81
2023/03/08 13:55:31;;;;;;;3.55;0.80;;;;;;;15.32;54.80;97503.78;6185542;23;20240;-81
2023/03/08 13:57:56;;;;;;;0.90;0.85;;;;;;;15.40;54.88;97511.63;6185642;23;20170;-81
2023/03/08 14:00:28;;;;;;;0.87;0.77;;;;;;;15.41;54.82;97507.97;6157430;23;20544;-81
2023/03/08 14:03:00;;;;;;;1.60;1.10;;;;;;;15.34;55.07;97499.94;6186404;23;20175;-81
2023/03/08 14:05:29;;;;;;;1.23;0.90;;;;;;;15.27;55.30;97501.66;6184305;23;20182;-82
2023/03/08 14:08:03;;;;;;;1.00;0.90;;;;;;;15.22;55.50;97499.53;6184470;23;20159;-81
2023/03/08 14:10:35;;;;;;;1.55;1.00;;;;;;;15.22;55.55;97493.44;6184016;23;20188;-82
2023/03/08 14:13:02;;;;;;;0.80;0.70;;;;;;;15.19;55.53;97485.88;6185731;23;20659;-80
2023/03/08 14:15:28;;;;;;;2.63;2.42;;;;;;;15.21;55.72;97476.75;6184033;23;20155;-81
2023/03/08 14:17:53;;;;;;;7.93;5.90;;;;;;;15.24;55.78;97476.38;6185848;23;20179;-80
2023/03/08 14:20:21;;;;;;;2.30;1.40;;;;;;;15.32;55.64;97482.63;6184019;23;20446;-80
2023/03/08 14:22:50;;;;;;;1.00;0.90;;;;;;;15.31;55.28;97465.06;6182480;23;20180;-80
2023/03/08 14:25:34;;;;;;;1.15;1.05;;;;;;;15.32;55.47;97478.13;6182112;23;20260;-80
2023/03/08 14:27:59;;;;;;;1.08;0.95;;;;;;;15.34;55.31;97464.72;6183097;23;20233;-80
2023/03/08 14:30:29;;;;;;;1.80;1.03;;;;;;;15.33;55.37;97453.31;6182805;23;20676;-80
2023/03/08 14:33:18;;;;;;;1.25;1.00;;;;;;;15.35;55.57;97487.53;6180864;23;20179;-80
2023/03/08 14:35:54;;;;;;;0.90;0.80;;;;;;;15.39;55.38;97472.94;6130274;23;20179;-81
2023/03/08 14:38:24;;;;;;;1.77;0.90;;;;;;;15.41;55.15;97463.81;6183321;23;20192;-81
2023/03/08 14:40:50;;;;;;;0.80;0.75;;;;;;;15.47;55.16;97470.22;5330593;23;10000639;-81
2023/03/08 14:43:18;;;;;;;1.02;0.93;;;;;;;15.49;55.07;97468.22;6184662;23;20271;-82
2023/03/08 14:45:54;;;;;;;1.30;1.10;;;;;;;15.49;55.15;97454.97;6184637;23;20186;-80
2023/03/08 14:48:23;;;;;;;2.78;0.88;;;;;;;15.49;55.02;97457.63;6184824;23;20166;-80
2023/03/08 14:50:56;;;;;;;1.23;1.00;;;;;;;15.42;54.95;97469.97;6184107;23;20284;-80
2023/03/08 14:53:28;;;;;;;1.67;0.88;;;;;;;15.36;55.29;97479.41;6180886;23;20254;-80
2023/03/08 14:55:54;;;;;;;1.85;1.00;;;;;;;15.30;55.69;97482.78;6180216;23;20155;-80
2023/03/08 14:58:24;;;;;;;1.50;1.00;;;;;;;15.26;55.67;97476.22;6179714;23;20158;-80
2023/03/08 15:00:51;;;;;;;3.58;0.98;;;;;;;15.18;55.76;97474.47;6180524;23;20154;-81
2023/03/08 15:03:16;;;;;;;1.92;0.88;;;;;;;15.08;56.17;97492.41;6177743;23;20170;-81
2023/03/08 15:05:42;;;;;;;1.23;0.80;;;;;;;14.99;56.24;97485.53;6180860;23;20165;-80
2023/03/08 15:08:10;;;;;;;3.20;3.00;;;;;;;14.91;56.45;97482.97;6180255;23;20158;-81
2023/03/08 15:10:38;;;;;;;9.27;1.13;;;;;;;14.85;57.23;97465.16;6180005;23;20187;-80
2023/03/08 15:13:21;;;;;;;1.30;1.02;;;;;;;14.82;57.11;97456.59;6177730;23;20499;-80
2023/03/08 15:15:48;;;;;;;1.65;1.13;;;;;;;14.78;57.25;97449.19;6178684;23;20189;-82
2023/03/08 15:18:13;;;;;;;1.10;1.00;;;;;;;14.75;57.25;97444.25;6178745;23;20606;-80
2023/03/08 15:20:45;;;;;;;2.07;0.93;;;;;;;14.72;57.54;97439.34;6179670;23;20151;-80
2023/03/08 15:23:26;;;;;;;2.00;1.00;;;;;;;14.70;57.88;97428.94;6179296;23;20988;-81
2023/03/08 15:25:51;;;;;;;1.40;1.30;;;;;;;14.66;58.08;97430.28;6179110;23;20569;-80
2023/03/08 15:28:19;;;;;;;1.23;1.00;;;;;;;14.59;58.49;97429.34;6177474;23;20178;-80
2023/03/08 15:30:44;;;;;;;1.40;0.90;;;;;;;14.51;59.30;97442.59;6178159;23;20209;-80
2023/03/08 15:33:10;;;;;;;1.40;1.30;;;;;;;14.45;59.50;97436.19;6180229;23;20661;-80
2023/03/08 15:35:37;;;;;;;2.70;1.70;;;;;;;14.39;60.03;97456.19;6184149;23;20155;-80
2023/03/08 15:38:02;;;;;;;2.08;1.88;;;;;;;14.32;60.70;97454.44;6179493;23;20253;-81
2023/03/08 15:40:30;;;;;;;2.60;1.63;;;;;;;14.26;60.93;97453.31;6179720;23;20546;-80
2023/03/08 15:42:55;;;;;;;2.38;1.40;;;;;;;14.19;61.49;97451.53;6147986;23;20182;-81
2023/03/08 15:45:21;;;;;;;2.97;2.00;;;;;;;14.10;62.61;97443.66;6180001;23;20730;-82
2023/03/08 15:48:00;;;;;;;3.00;1.47;;;;;;;13.99;63.31;97454.59;6178277;23;20158;-81
2023/03/08 15:50:27;;;;;;;1.60;1.50;;;;;;;13.90;63.57;97463.53;6178856;23;20189;-80
2023/03/08 15:52:53;;;;;;;2.67;1.58;;;;;;;13.85;63.90;97460.56;6181080;23;20281;-79
2023/03/08 15:55:19;;;;;;;3.53;2.33;;;;;;;13.78;64.35;97451.72;6183234;23;20558;-80
2023/03/08 15:57:45;;;;;;;2.78;1.90;;;;;;;13.72;64.59;97450.59;6180950;23;20160;-80
2023/03/08 16:00:12;;;;;;;4.90;2.23;;;;;;;13.68;64.86;97454.53;6179700;23;20514;-81
2023/03/08 16:02:39;;;;;;;2.10;1.60;;;;;;;13.61;65.26;97450.91;6178882;23;20390;-80
2023/03/08 16:05:07;;;;;;;1.30;1.10;;;;;;;13.60;65.64;97449.28;6176928;23;20406;-80
2023/03/08 16:07:32;;;;;;;1.92;1.45;;;;;;;13.55;66.05;97447.16;6175451;23;20155;-81
2023/03/08 16:09:58;;;;;;;2.07;1.37;;;;;;;13.51;66.47;97443.22;6178780;23;20193;-80
2023/03/08 16:12:24;;;;;;;3.10;1.73;;;;;;;13.48;66.63;97440.94;6180485;23;20162;-80
2023/03/08 16:14:49;;;;;;;1.40;1.10;;;;;;;13.44;66.84;97437.78;6179160;23;20166;-80
2023/03/08 16:17:16;;;;;;;1.33;1.23;;;;;;;13.40;67.13;97444.41;6176863;23;20166;-80
2023/03/08 16:19:42;;;;;;;1.30;1.10;;;;;;;13.40;66.92;97433.84;6177959;23;20155;-81
2023/03/08 16:22:08;;;;;;;4.20;1.27;;;;;;;13.40;67.03;97447.03;6179535;23;20170;-80
2023/03/08 16:24:33;;;;;;;1.43;1.33;;;;;;;13.38;67.35;97446.38;6177750;23;20662;-80
2023/03/08 16:26:59;;;;;;;1.73;1.40;;;;;;;13.35;67.31;97445.91;6182195;23;20155;-80
2023/03/08 16:29:25;;;;;;;1.33;1.23;;;;;;;13.30;67.63;97443.75;6180260;23;20183;-81
2023/03/08 16:31:51;;;;;;;2.10;1.13;;;;;;;13.31;67.58;97431.41;6181843;23;20301;-81
2023/03/08 16:34:17;;;;;;;1.73;1.43;;;;;;;13.27;67.61;97417.72;6179968;23;20202;-82
2023/03/08 16:36:43;;;;;;;4.00;2.28;;;;;;;13.25;67.83;97431.03;6186812;23;20157;-80
2023/03/08 16:39:08;;;;;;;3.43;2.00;;;;;;;13.20;67.96;97433.34;6180427;23;20162;-80
2023/03/08 16:41:38;;;;;;;1.90;1.57;;;;;;;13.19;68.01;97431.72;6179752;23;20881;-81
2023/03/08 16:44:05;;;;;;;2.00;1.50;;;;;;;13.18;68.13;97432.72;6180752;23;20491;-80
2023/03/08 16:46:31;;;;;;;2.30;1.33;;;;;;;13.18;68.26;97434.53;6180413;23;20474;-82
2023/03/08 16:48:58;;;;;;;1.98;1.13;;;;;;;13.17;68.03;97424.97;6179932;23;20158;-81
2023/03/08 16:51:26;;;;;;;2.45;1.38;;;;;;;13.15;68.06;97434.84;6180864;23;20590;-81
2023/03/08 16:53:52;;;;;;;1.92;1.30;;;;;;;13.17;68.11;97446.06;6180591;23;20194;-80
2023/03/08 16:56:23;;;;;;;3.30;1.70;;;;;;;13.17;68.26;97422.34;6180567;23;20159;-80
2023/03/08 16:58:49;;;;;;;2.00;1.20;;;;;;;13.07;68.49;97415.44;6179689;23;20409;-82
2023/03/08 17:01:16;;;;;;;1.80;1.70;;;;;;;13.02;68.43;97403.75;6180426;23;20158;-79
2023/03/08 17:03:41;;;;;;;1.27;1.10;;;;;;;12.96;68.57;97399.97;6180595;23;20174;-81
2023/03/08 17:06:11;;;;;;;1.27;1.00;;;;;;;12.90;68.74;97421.69;6181869;23;20189;-80
2023/03/08 17:08:37;;;;;;;2.45;2.05;;;;;;;12.82;68.62;97426.97;6181603;23;20617;-81
2023/03/08 17:11:04;;;;;;;2.50;1.73;;;;;;;12.81;68.11;97428.78;6180333;23;20252;-80
2023/03/08 17:13:31;;;;;;;1.25;1.08;;;;;;;12.77;68.09;97430.13;6177468;23;20465;-80
2023/03/08 17:15:56;;;;;;;2.13;1.23;;;;;;;12.72;67.71;97402.59;6175882;23;20158;-80
2023/03/08 17:18:23;;;;;;;3.00;1.20;;;;;;;12.70;67.40;97402.78;6178230;23;20632;-80
2023/03/08 17:20:49;;;;;;;1.10;1.00;;;;;;;12.74;67.00;97405.91;6178881;23;20222;-79
2023/03/08 17:23:16;;;;;;;1.77;1.00;;;;;;;12.71;66.99;97398.34;6177816;23;20178;-80
2023/03/08 17:25:41;;;;;;;1.40;0.90;;;;;;;12.68;67.04;97398.66;6176951;23;20162;-81
2023/03/08 17:28:07;;;;;;;1.17;1.07;;;;;;;12.66;67.01;97416.44;6174751;23;20155;-80
2023/03/08 17:30:33;;;;;;;1.20;0.90;;;;;;;12.62;67.10;97419.41;6176269;23;20210;-80
2023/03/08 17:32:59;;;;;;;1.05;0.98;;;;;;;12.59;67.62;97418.94;6180771;23;20471;-80
2023/03/08 17:35:25;;;;;;;1.47;1.10;;;;;;;12.57;67.80;97411.16;6177955;23;20226;-80
2023/03/08 17:37:51;;;;;;;1.93;1.30;;;;;;;12.56;68.24;97414.81;6179450;23;20160;-77
2023/03/08 17:40:18;;;;;;;2.73;1.63;;;;;;;12.55;68.75;97420.22;6179988;23;20384;-77
2023/03/08 17:42:45;;;;;;;1.30;1.10;;;;;;;12.52;69.01;97413.47;6179149;23;20287;-77
2023/03/08 17:45:13;;;;;;;1.50;1.40;;;;;;;12.49;69.27;97407.72;6179378;23;20163;-77
2023/03/08 17:47:39;;;;;;;2.08;1.00;;;;;;;12.46;70.13;97414.13;6179562;23;20185;-78
2023/03/08 17:50:06;;;;;;;1.13;1.00;;;;;;;12.44;70.15;97413.47;6179490;23;20193;-78
2023/03/08 17:52:32;;;;;;;1.45;1.10;;;;;;;12.41;70.32;97408.53;6180460;23;20284;-78
2023/03/08 17:54:57;;;;;;;1.43;1.27;;;;;;;12.42;70.65;97420.69;6180663;23;20193;-77
2023/03/08 17:57:23;;;;;;;1.93;0.90;;;;;;;12.44;70.69;97428.44;6180722;23;20151;-78
2023/03/08 17:59:50;;;;;;;1.10;1.00;;;;;;;12.46;70.71;97414.13;6180734;23;20792;-77
2023/03/08 18:02:17;;;;;;;1.13;1.02;;;;;;;12.51;70.63;97434.72;6180526;23;20610;-77
2023/03/08 18:04:47;;;;;;;3.60;1.80;;;;;;;12.52;70.82;97426.63;6178236;23;20168;-77
2023/03/08 18:07:14;;;;;;;1.52;0.95;;;;;;;12.52;70.97;97434.53;6177831;23;20168;-78